East Falmouth, MA (02536)

3:42 PM EDT on September 17, 2014 (GMT -0400)
Falmouth Airpark Area | Change Station
CLOSE
Current Station
Personal Weather Station
Location: East Falmouth, MA
Elevation: 50 ft
Nearby Weather Stations

Elev 50 ft 41.59 °N, 70.53 °W | Updated 2 minutes ago

Clear
Clear
70.0 °F
Feels Like 70.0 °F
N
0.7
Wind Variable Wind from SW
Gusts 3.1 mph

Today
High -- | Low -- °F
--% Chance of Precip.
Yesterday
High -- | Low -- °F
Precip. -- in
6:24 AM 6:48 PM
Waning Crescent, 33% visible
Pressure 29.95 in
Visibility 10.0 miles
Clouds Clear
Dew Point 49 °F
Humidity 48%
Rainfall 0.00 in
Snow Depth Not available.
UV 4 out of 12
Pollen 3.50 out of 12
Air Quality Not available.
Flu Activity Not available.
METAR KFMH 171935Z AUTO VRB05G13KT 10SM CLR 22/04 A2995 RMK AO2

More Conditions Fewer Conditions

Pressure 29.95 in
Visibility 10.0 miles
Clouds Clear
Dew Point 49 °F
Humidity 48%
Rainfall 0.00 in
Snow Depth Not available.
UV 4 out of 12
Pollen 3.50 out of 12
Air Quality Not available.
Flu Activity Not available.
METAR KFMH 171935Z AUTO VRB05G13KT 10SM CLR 22/04 A2995 RMK AO2

More Conditions Fewer Conditions

10-Day Weather Forecast

Almanac

Astronomy

Sep. 17, 2014 Rise Set
Actual Time 6:24 AM EDT 6:48 PM EDT
Civil Twilight 5:56 AM EDT 7:15 PM EDT
Nautical Twilight 5:23 AM EDT 7:48 PM EDT
Astronomical Twilight 4:50 AM EDT 8:21 PM EDT
Moon 12:18 AM EDT 2:58 PM EDT
Length of Visible Light 13h 19m
Length of Day
12h 23m
Tomorrow will be 2m 45s shorter.
Waning Crescent, 33% of the Moon is Illuminated
Today
Waning Crescent
Sep 24
New
Oct 1
First Quarter
Oct 8
Full
Oct 15
Last Quarter

Today's Extremes

State Highs State Lows

Community

WunderPhotos

Upload Photos

1,754,149 photos uploaded!

Nearby

Air Quality

  Air Quality AQ Index Pollutant
Yesterday Good
OZONE
Wednesday Good
PM2.5
Wednesday Good
OZONE

Snow Depth

Station Depth Elevation
No new snow has been reported.

Earthquake Activity

City Distance Mag. Time & Date
No recent earthquake activity has been reported nearby.
Minimum magnitude displayed is 2.5.

Coastal Water Temperatures

Place Temperature
Nantucket Island, MA 69.1 °F
Woods Hole, MA 70.0 °F
Fall River, MA 71.1 °F
Boston, MA 63.0 °F

Nearby Weather Stations